Pagrindinis puslapis
METAR-TAF:

METAR-TAF

Oro uostai :

Rurenabakė, Bolivija

platuma: 14-28S, ilguma: 067-34W, Aukštis: 204 m

Dabartinis oras

Ataskaita buvo paskelbta 48 minutes, ne 13:00 UTC
Ramus vėjas
Temperatūra 28°C
Drėgmė 84%
Slėgis 1010 hPa
Matomumas: 8000 m

METAR: SLRQ 201300Z 00000KT 8000 NSC 28/25 Q1010

Laikas: 09:48 (13:48 UTC)


TAF: trūkstamas

Orai ataskaitas ir orų prognozės (METAR, TAF).

turimą stotys yra geltonos ir raudonos taškus žemėlapyje.

Perkelti pele per norėdami pamatyti stoties vardą.

Tada spustelėkite, norėdami matyti oro stebėjimo ir prognozės.

Norėdami pakeisti žemėlapį: spustelėkite ant žalios mygtukų su juodo kryžiaus žemyn,; žalią mygtuką su brūkšneliu, jei norite nutolinti; arba žalių rodyklių gretimoms žemėlapius.


METAR-TAF: